Home > Products > Valid Products > TAF

000
FTUS46 KPDT 302300
TAFRDM
TAF
KRDM 302320Z 3100/3124 VRB04KT P6SM SCT130 BKN150
     FM310700 20006KT P6SM VCSH BKN050 OVC070
     FM310900 18004KT 3SM -RA BR BKN020 OVC030
     FM311300 21005KT 2SM RA BR SCT010 OVC020=



000
FTUS46 KPDT 302300
TAFALW
TAF
KALW 302320Z 3100/3124 22005KT 4SM HZ SCT130 OVC150
     FM311000 18005KT P6SM BKN110 OVC130
     FM311400 16005KT P6SM BKN070 OVC090
     FM311900 22007KT P6SM -RA BKN040 OVC050=



000
FTUS46 KPDT 302300
TAFYKM
TAF
KYKM 302320Z 3100/3124 34004KT P6SM SCT120 OVC150
     FM310300 VRB03KT P6SM -RA BKN040 OVC050
     FM310500 27004KT 3SM RA BR BKN020 OVC030
      TEMPO 3106/3110 2SM RA BR BKN003 OVC012
     FM311200 VRB03KT 1SM RA BR OVC003
     FM312100 30010KT P6SM SCT080 BKN100 OVC130=



000
FTUS46 KPDT 302300
TAFDLS
TAF
KDLS 302320Z 3100/3124 06007KT P6SM SCT027 OVC100
     FM310200 VRB04KT 3SM -RA BR BKN025 OVC035
     FM310400 VRB02KT 1SM RA BR BKN005 OVC012
      TEMPO 3105/3108 1/2SM +RA FG OVC002
     FM312000 30010KT P6SM BKN100 OVC130=



000
FTUS46 KPDT 302300
TAFPSC
TAF
KPSC 302320Z 3100/3124 31004KT P6SM SCT015 SCT120 OVC150
     FM310400 31005KT P6SM SCT080 OVC100
     FM310900 VRB04KT P6SM BKN050 OVC080
     FM311700 18005KT P6SM -RA BKN025 OVC040=



000
FTUS46 KPDT 302300
TAFPDT
TAF
KPDT 302320Z 3100/3124 30010KT P6SM SCT130 BKN150 OVC180
     FM310600 VRB05KT P6SM BKN100 OVC150
     FM311300 16005KT P6SM BKN070 OVC090
     FM311900 26007KT P6SM -RA BKN045 OVC060=



000
FTUS46 KPDT 302200 AAA
TAFPDT
TAF AMD
KPDT 302237Z 3023/3118 30010KT P6SM SCT130 BKN150 OVC180
     FM310600 VRB05KT P6SM BKN100 OVC150
     FM311300 16005KT P6SM BKN070 OVC090
     FM311700 26007KT P6SM -RA BKN040 OVC050=



000
FTUS46 KPDT 302100 AAB
TAFDLS
TAF AMD
KDLS 302110Z 3021/3118 06006KT P6SM BKN025 OVC100
     FM310000 06005KT P6SM VCSH BKN025 OVC080
     FM310200 VRB04KT 3SM -RA BR OVC025
     FM310600 VRB02KT 2SM RA BR OVC020=



000
FTUS46 KPDT 302100 AAB
TAFDLS
TAF AMD
KDLS 302110Z 3021/3118 06006KT P6SM BKN025 OVC100
     FM310000 06005KT P6SM VCSH BKN025 OVC080
     FM310200 VRB04KT 3SM -RA BR OVC025
     FM310600 VRB02KT 2SM RA BR OVC020=



000
FTUS46 KPDT 302100 AAA
TAFALW
TAF AMD
KALW 302103Z 3021/3118 VRB03KT 3SM HZ SCT130 OVC150
     FM310000 16005KT P6SM BKN110 OVC130
     FM311400 16005KT P6SM BKN070 OVC090
     FM311700 22007KT P6SM -RA BKN040 OVC050=



000
FTUS46 KPDT 302100 AAA
TAFYKM
TAF AMD
KYKM 302100Z 3021/3118 32004KT P6SM SCT015 BKN050 BKN090
     FM310200 VRB03KT 6SM -RA BR BKN040 OVC050
     FM310400 27004KT 2SM RA BR BKN025 OVC050
      TEMPO 3107/3111 1SM RA BR BKN003 OVC050=



000
FTUS46 KPDT 301800 AAA
TAFDLS
TAF AMD
KDLS 301822Z 3018/3118 09004KT P6SM SCT020 BKN080 BKN110
     FM302000 VRB03KT P6SM SCT090 BKN200
     FM302300 VRB03KT P6SM VCSH BKN030 OVC100
     FM310100 30004KT 3SM -RA BR OVC025
     FM310600 34004KT 2SM RA BR OVC020=



000
FTUS46 KPDT 301700
TAFDLS
TAF
KDLS 301740Z 3018/3118 00000KT 6SM BR BKN025 BKN050
      TEMPO 3018/3020 5SM BR SCT003 OVC025
     FM302000 VRB03KT P6SM SCT030 OVC090
     FM302100 VRB03KT 6SM BR VCSH BKN030 OVC100
     FM310100 30004KT 3SM -RA BR OVC025
     FM310600 34004KT 2SM RA BR OVC020=



000
FTUS46 KPDT 301700
TAFPSC
TAF
KPSC 301740Z 3018/3118 31004KT P6SM BKN100 OVC130
     FM310300 31005KT 6SM BR OVC100
     FM310900 VRB04KT 6SM BR BKN050 OVC080
     FM311300 18005KT P6SM -RA BKN050 OVC060=



000
FTUS46 KPDT 301700
TAFALW
TAF
KALW 301740Z 3018/3118 VRB04KT 4SM BR OVC080
     FM302000 18005KT 6SM BR SCT100 OVC120
     FM302200 18005KT P6SM BKN120 OVC130
     FM311400 16005KT P6SM BKN070 OVC090
     FM311700 22007KT P6SM -RA BKN040 OVC050=



000
FTUS46 KPDT 301700
TAFYKM
TAF
KYKM 301740Z 3018/3118 27004KT 4SM BR VCSH SCT050 BKN070 OVC090
     FM302100 VRB04KT P6SM SCT070 BKN090
     FM310200 VRB02KT 6SM -RA BR BKN050 OVC060
     FM310400 27004KT 2SM RA BR BKN025 OVC050
      TEMPO 3107/3111 1SM RA BR BKN003 OVC050=



000
FTUS46 KPDT 301700
TAFPDT
TAF
KPDT 301740Z 3018/3118 35004KT P6SM BKN080 OVC100
     FM310600 15005KT P6SM BKN100 OVC150
     FM311300 16005KT P6SM BKN070 OVC090
     FM311600 26007KT P6SM -RA BKN040 OVC050=



000
FTUS46 KPDT 301700
TAFRDM
TAF
KRDM 301740Z 3018/3118 VRB02KT 6SM BR SCT003 BKN100
     FM301900 VRB05KT P6SM SCT110 BKN130
     FM302100 31008KT P6SM SCT130 BKN150
     FM310800 18004KT 3SM -RA BR BKN020 OVC030
     FM311100 21005KT 2SM RA BR SCT010 OVC020=



000
FTUS46 KPDT 301700
TAFPSC
TAF
KPSC 301740Z 3018/3118 31004KT P6SM BKN100 OVC130
     FM310300 31005KT 6SM BR OVC100
     FM310900 VRB04KT 6SM BR BKN050 OVC080
     FM311300 18005KT P6SM -RA BKN050 OVC060=



000
FTUS46 KPDT 301700
TAFDLS
TAF
KDLS 301740Z 3018/3118 00000KT 6SM BR BKN025 BKN050
      TEMPO 3018/3020 5SM BR SCT003 OVC025
     FM302000 VRB03KT P6SM SCT030 OVC090
     FM302100 VRB03KT 6SM BR VCSH BKN030 OVC100
     FM310100 30004KT 3SM -RA BR OVC025
     FM310600 34004KT 2SM RA BR OVC020=



000
FTUS46 KPDT 301700
TAFYKM
TAF
KYKM 301740Z 3018/3118 27004KT 4SM BR VCSH SCT050 BKN070 OVC090
     FM302100 VRB04KT P6SM SCT070 BKN090
     FM310200 VRB02KT 6SM -RA BR BKN050 OVC060
     FM310400 27004KT 2SM RA BR BKN025 OVC050
      TEMPO 3107/3111 1SM RA BR BKN003 OVC050=



000
FTUS46 KPDT 301700
TAFPDT
TAF
KPDT 301740Z 3018/3118 35004KT P6SM BKN080 OVC100
     FM310600 15005KT P6SM BKN100 OVC150
     FM311300 16005KT P6SM BKN070 OVC090
     FM311600 26007KT P6SM -RA BKN040 OVC050=



000
FTUS46 KPDT 301700
TAFALW
TAF
KALW 301740Z 3018/3118 VRB04KT 4SM BR OVC080
     FM302000 18005KT 6SM BR SCT100 OVC120
     FM302200 18005KT P6SM BKN120 OVC130
     FM311400 16005KT P6SM BKN070 OVC090
     FM311700 22007KT P6SM -RA BKN040 OVC050=



000
FTUS46 KPDT 301700
TAFRDM
TAF
KRDM 301740Z 3018/3118 VRB02KT 6SM BR SCT003 BKN100
     FM301900 VRB05KT P6SM SCT110 BKN130
     FM302100 31008KT P6SM SCT130 BKN150
     FM310800 18004KT 3SM -RA BR BKN020 OVC030
     FM311100 21005KT 2SM RA BR SCT010 OVC020=



000
FTUS46 KPDT 301700 AAA
TAFRDM
TAF AMD
KRDM 301724Z 3017/3112 VRB02KT 6SM BR SCT003 BKN100
     FM301900 VRB05KT P6SM SCT110 BKN130
     FM302100 31008KT P6SM SCT130 BKN150
     FM310800 18004KT 3SM -RA BR BKN020 OVC030
     FM311100 21005KT 2SM RA BR SCT010 OVC020=



000
FTUS46 KPDT 301600 AAA
TAFALW
TAF AMD
KALW 301658Z 3017/3112 VRB04KT 4SM BR VCSH OVC080
     FM301800 17005KT 5SM BR BKN080 OVC100
     FM301900 18005KT 6SM BR SCT100 OVC120
     FM302000 18005KT P6SM BKN120 OVC130=



000
FTUS46 KPDT 301600 AAA
TAFALW
TAF AMD
KALW 301658Z 3017/3112 VRB04KT 4SM BR VCSH OVC080
     FM301800 17005KT 5SM BR BKN080 OVC100
     FM301900 18005KT 6SM BR SCT100 OVC120
     FM302000 18005KT P6SM BKN120 OVC130=



000
FTUS46 KPDT 301600 AAD
TAFDLS
TAF AMD
KDLS 301630Z 3017/3112 00000KT 4SM -RA BR FEW025 OVC090
      TEMPO 3017/3018 2SM -RA BR BKN025 BKN050 OVC090
     FM301900 VRB03KT 5SM -RA BR SCT025 BKN030
     FM302100 VRB03KT 6SM BR VCSH BKN030 OVC100
     FM310100 30004KT 3SM -RA BR OVC025
     FM310600 34004KT 2SM RA BR OVC020=



000
FTUS46 KPDT 301600 AAD
TAFDLS
TAF AMD
KDLS 301630Z 3017/3112 00000KT 4SM -RA BR FEW025 OVC090
      TEMPO 3017/3018 2SM -RA BR BKN025 BKN050 OVC090
     FM301900 VRB03KT 5SM -RA BR SCT025 BKN030
     FM302100 VRB03KT 6SM BR VCSH BKN030 OVC100
     FM310100 30004KT 3SM -RA BR OVC025
     FM310600 34004KT 2SM RA BR OVC020=



000
FTUS46 KPDT 301600 AAB
TAFYKM
TAF AMD
KYKM 301629Z 3016/3112 27004KT 4SM -RA BR SCT040 OVC050
     FM301800 VRB04KT 4SM BR VCSH SCT050 OVC090
     FM302200 VRB04KT P6SM SCT070 BKN090
     FM310200 VRB02KT 6SM -RA BR BKN050 OVC060
     FM310400 27004KT 2SM RA BR BKN025 OVC050
      TEMPO 3107/3111 1SM RA BR BKN003 OVC050=



000
FTUS46 KPDT 301600 AAB
TAFYKM
TAF AMD
KYKM 301629Z 3016/3112 27004KT 4SM -RA BR SCT040 OVC050
     FM301800 VRB04KT 4SM BR VCSH SCT050 OVC090
     FM302200 VRB04KT P6SM SCT070 BKN090
     FM310200 VRB02KT 6SM -RA BR BKN050 OVC060
     FM310400 27004KT 2SM RA BR BKN025 OVC050
      TEMPO 3107/3111 1SM RA BR BKN003 OVC050=



000
FTUS46 KPDT 301500 AAC
TAFDLS
TAF AMD
KDLS 301556Z 3016/3112 00000KT 4SM -RA BR FEW025 OVC090
      TEMPO 3016/3017 2SM -RA BR SCT025 OVC090
     FM301800 VRB03KT 5SM -RA BR SCT025 BKN030
     FM302100 VRB03KT 6SM BR VCSH BKN030 OVC100
     FM310100 30004KT 3SM -RA BR OVC025
     FM310600 34004KT 2SM RA BR OVC020=



000
FTUS46 KPDT 301300 AAB
TAFDLS
TAF AMD
KDLS 301343Z 3014/3112 12003KT 4SM -RA BR SCT015 BKN070
     FM301600 VRB03KT 5SM -RA BR SCT010 BKN030
     FM301800 VRB04KT 4SM -RA BR SCT005 BKN030
     FM302100 VRB03KT 6SM BR VCSH BKN030 OVC100
     FM310100 30004KT 3SM -RA BR OVC025
     FM310600 34004KT 2SM RA BR OVC020=



000
FTUS46 KPDT 301300 AAA
TAFYKM
TAF AMD
KYKM 301343Z 3014/3112 27004KT 5SM -RA BR SCT040 OVC050
     FM302100 VRB02KT 4SM BR VCSH OVC025
     FM310000 VRB02KT 6SM BR VCSH OVC030
     FM310600 27004KT 4SM -RA BR OVC025=



000
FTUS46 KPDT 301200 AAA
TAFDLS
TAF AMD
KDLS 301213Z 3012/3112 04003KT 5SM -RA BR BKN010 OVC030
     FM301600 VRB03KT 5SM -RA BR SCT010 BKN030
     FM301800 VRB04KT 4SM -RA BR SCT005 BKN030
     FM302100 VRB03KT 6SM BR VCSH BKN030 OVC100
     FM310100 30004KT 3SM -RA BR OVC025
     FM310600 34004KT 2SM RA BR OVC020=



000
FTUS46 KPDT 301100
TAFRDM
TAF
KRDM 301120Z 3012/3112 16005KT 6SM -RA BKN050 OVC070
     FM301800 33004KT P6SM BKN110 OVC130
     FM310400 16004KT P6SM VCSH SCT060 BKN100
     FM310700 21005KT P6SM -RA SCT010 BKN040 OVC060=



000
FTUS46 KPDT 301100
TAFPDT
TAF
KPDT 301120Z 3012/3112 11004KT P6SM OVC100
     FM301800 35004KT P6SM BKN080 OVC100
     FM310600 15005KT P6SM BKN100 OVC150=



000
FTUS46 KPDT 301100
TAFYKM
TAF
KYKM 301120Z 3012/3112 27004KT 6SM BR SCT050 OVC070
     FM302100 VRB02KT 4SM BR VCSH OVC025
     FM310000 VRB02KT 6SM BR VCSH OVC030
     FM310600 27004KT 4SM -RA BR OVC025=



000
FTUS46 KPDT 301100
TAFALW
TAF
KALW 301120Z 3012/3112 17006KT 2SM BR SCT002 BKN100
      TEMPO 3012/3014 1/4SM FG VV002
     FM301600 18004KT 5SM BR FEW002 BKN080 OVC100
     FM301800 25005KT P6SM BKN080 OVC100
     FM310400 18005KT 6SM BR BKN100 OVC150=



000
FTUS46 KPDT 301100
TAFDLS
TAF
KDLS 301120Z 3012/3112 VRB02KT 5SM -RA BR SCT006 SCT030 OVC090
     FM301800 VRB04KT 4SM -RA BR SCT005 BKN030
     FM302100 VRB03KT 6SM BR VCSH BKN030 OVC100
     FM310100 30004KT 3SM -RA BR OVC025
     FM310600 34004KT 2SM RA BR OVC020=



000
FTUS46 KPDT 301100
TAFPSC
TAF
KPSC 301120Z 3012/3112 35003KT 6SM -RA BR OVC090
     FM301600 34004KT P6SM VCSH BKN080 OVC100
     FM301800 36005KT P6SM BKN100
     FM310300 31005KT 6SM BR OVC100
     FM310900 VRB04KT 6SM BR BKN050 OVC080=



000
FTUS46 KPDT 301000 AAD
TAFDLS
TAF AMD
KDLS 301021Z 3010/3106 VRB03KT 5SM -RA BR SCT005 OVC045
      TEMPO 3010/3012 BKN005
     FM301200 VRB02KT 2SM -RA BR BKN030 OVC035
     FM301800 VRB04KT P6SM VCSH OVC050=



000
FTUS46 KPDT 301000 AAA
TAFALW
TAF AMD
KALW 301020Z 3010/3106 16006KT 2SM BR BKN002 BKN090
     FM301200 15005KT 3SM BR BKN010 BKN060
     FM301800 VRB03KT P6SM OVC060=



000
FTUS46 KPDT 301000 AAA
TAFALW
TAF AMD
KALW 301020Z 3010/3106 16006KT 2SM BR BKN002 BKN090
     FM301200 15005KT 3SM BR BKN010 BKN060
     FM301800 VRB03KT P6SM OVC060=



000
FTUS46 KPDT 301000 AAC
TAFDLS
TAF AMD
KDLS 301000Z 3010/3106 VRB03KT 3SM -RA BR BKN005 OVC045
     FM301200 VRB02KT 2SM -RA BR BKN030 OVC035
     FM301800 VRB04KT P6SM VCSH OVC050=



000
FTUS46 KPDT 300700 AAB
TAFDLS
TAF AMD
KDLS 300759Z 3008/3106 VRB03KT 6SM -RA BR OVC050
      TEMPO 3008/3010 3SM -RA BR BKN005 OVC045
     FM301200 VRB02KT 2SM -RA BR BKN030 OVC035
     FM301800 VRB04KT P6SM VCSH OVC050=



000
FTUS46 KPDT 300700 AAA
TAFDLS
TAF AMD
KDLS 300715Z 3007/3106 VRB03KT 6SM -RA BR OVC050
      TEMPO 3007/3010 3SM -RA BR BKN035 OVC045
     FM301200 VRB02KT 2SM -RA BR BKN030 OVC035
     FM301800 VRB04KT P6SM VCSH OVC050=



000
FTUS46 KPDT 300500
TAFPSC
TAF
KPSC 300537Z 3006/3106 33004KT P6SM OVC130
     FM300900 36003KT P6SM VCSH OVC100
     FM301200 VRB03KT 6SM -RA BR OVC070
     FM301500 34004KT P6SM VCSH OVC060
     FM301800 36005KT P6SM OVC080=



000
FTUS46 KPDT 300500
TAFALW
TAF
KALW 300537Z 3006/3106 09007KT P6SM OVC120
     FM300800 12005KT P6SM BKN070 OVC120
     FM301800 VRB03KT P6SM OVC060=



000
FTUS46 KPDT 300500
TAFYKM
TAF
KYKM 300537Z 3006/3106 29005KT 6SM BR VCSH OVC100
     FM300800 27004KT 5SM -RA BR OVC050
     FM301200 26005KT 2SM -RA BR OVC020
     FM302100 VRB02KT 4SM BR VCSH OVC025
     FM310000 VRB02KT P6SM VCSH OVC030=



000
FTUS46 KPDT 300500
TAFDLS
TAF
KDLS 300537Z 3006/3106 VRB04KT P6SM -RA OVC080
     FM300900 VRB03KT 6SM -RA BR OVC050
      TEMPO 3010/3012 3SM -RA BR BKN035 OVC045
     FM301200 VRB02KT 2SM -RA BR BKN030 OVC035
     FM301800 VRB04KT P6SM VCSH OVC050=



000
FTUS46 KPDT 300500
TAFRDM
TAF
KRDM 300537Z 3006/3106 VRB04KT P6SM OVC060
     FM301200 16005KT P6SM OVC070
     FM301800 18006KT P6SM BKN110 OVC130=



000
FTUS46 KPDT 300500
TAFPDT
TAF
KPDT 300537Z 3006/3106 07007KT P6SM OVC110
     FM300900 11004KT P6SM BKN070 OVC110
     FM301800 VRB04KT P6SM OVC060=



000
FTUS46 KPDT 292300
TAFYKM
TAF
KYKM 292320Z 3000/3024 16004KT P6SM BKN080 BKN200
     FM300500 28005KT P6SM BKN200
     FM301000 27004KT 6SM -RA BR BKN060 OVC080
     FM301200 26005KT 2SM -RA BR BKN020 OVC028
     FM301800 VRB05KT P6SM BKN060 OVC100=



000
FTUS46 KPDT 292300
TAFPSC
TAF
KPSC 292320Z 3000/3024 VRB03KT P6SM FEW090 BKN200
     FM300300 VRB03KT P6SM SCT120 BKN150
     FM300800 VRB04KT P6SM SCT080 BKN100
     FM301200 32005KT P6SM -RA BKN060 OVC080
     FM301500 18007KT P6SM VCSH BKN080 OVC100=



000
FTUS46 KPDT 292300
TAFRDM
TAF
KRDM 292320Z 3000/3024 20006KT P6SM SCT150 BKN180
     FM300200 18006KT P6SM SCT070 BKN100
     FM300700 16004KT P6SM -RA BKN060 OVC080
     FM301200 16004KT P6SM BKN070 BKN090
     FM301800 18007KT P6SM BKN110 OVC130=



000
FTUS46 KPDT 292300
TAFPDT
TAF
KPDT 292320Z 3000/3024 35007KT P6SM FEW060 SCT090 BKN250
     FM300200 16004KT P6SM SCT150 BKN200
     FM300800 15005KT P6SM BKN080 OVC100
     FM301800 18007KT P6SM BKN110 OVC130=



000
FTUS46 KPDT 292300
TAFDLS
TAF
KDLS 292320Z 3000/3024 31004KT P6SM SCT200 BKN250
     FM300600 VRB04KT P6SM BKN080 BKN200
     FM300900 33003KT 6SM -RA BR BKN060 OVC070
      TEMPO 3010/3012 3SM -RA BR BKN035 OVC045
     FM301200 VRB03KT 2SM -RA BR BKN020 OVC028
     FM301800 11005KT P6SM BKN060 OVC100=



000
FTUS46 KPDT 292300
TAFALW
TAF
KALW 292320Z 3000/3024 23007KT P6SM BKN080 BKN250
     FM300300 VRB04KT P6SM SCT150 BKN200
     FM300800 11005KT P6SM BKN070 OVC090
     FM301800 18007KT P6SM BKN090 OVC110=



000
FTUS46 KPDT 291800 AAA
TAFYKM
TAF AMD
KYKM 291806Z 2918/3018 00000KT 4SM BR SCT002 BKN080
      TEMPO 2918/2919 2SM BR BKN002 BKN080
     FM292000 16004KT P6SM SCT080 BKN250
     FM300500 28005KT P6SM BKN200
     FM301000 27004KT 6SM -RA BR BKN060 OVC080
     FM301200 26005KT 2SM -RA BR BKN020 OVC028=



000
FTUS46 KPDT 291700
TAFYKM
TAF
KYKM 291738Z 2918/3018 00000KT 2SM BR BKN002 BKN060
      TEMPO 2918/2920 1/2SM FG OVC002
     FM292000 16004KT P6SM SCT050 BKN200
     FM300400 28005KT P6SM BKN200
     FM301000 27004KT 6SM -RA BR BKN060 OVC080
     FM301200 26005KT 2SM -RA BR BKN020 OVC028=



000
FTUS46 KPDT 291700
TAFALW
TAF
KALW 291738Z 2918/3018 20010KT P6SM BKN080
     FM292000 23007KT P6SM SCT080 BKN250
     FM300300 VRB04KT P6SM BKN200
     FM300800 13005KT P6SM BKN100=



000
FTUS46 KPDT 291700
TAFDLS
TAF
KDLS 291738Z 2918/3018 31004KT P6SM BKN060 BKN080
     FM300200 VRB04KT P6SM SCT060 BKN250
     FM300900 33003KT 6SM -RA BR BKN060 OVC070
      TEMPO 3010/3012 3SM -RA BR BKN035 OVC045
     FM301200 VRB03KT 2SM -RA BR BKN020 OVC028=



000
FTUS46 KPDT 291700
TAFPSC
TAF
KPSC 291738Z 2918/3018 20007KT 6SM BR FEW002 SCT100 SCT200
     FM291900 23007KT P6SM SCT080 BKN200
     FM300300 VRB04KT P6SM BKN200
     FM300800 VRB04KT P6SM BKN100
     FM301200 32005KT P6SM -RA BKN060 OVC080=



000
FTUS46 KPDT 291700
TAFPDT
TAF
KPDT 291738Z 2918/3018 18007KT P6SM FEW060 SCT090 BKN250
     FM292000 28007KT P6SM FEW060 SCT090 BKN250
     FM300200 16004KT P6SM BKN200
     FM300800 15005KT P6SM BKN100=



000
FTUS46 KPDT 291700
TAFRDM
TAF
KRDM 291738Z 2918/3018 17007KT P6SM BKN250
     FM292100 20007KT P6SM SCT150 BKN180
     FM300100 18006KT P6SM SCT070 BKN100
     FM300700 16004KT P6SM -RA BKN060 OVC080
     FM301200 16004KT P6SM BKN070 BKN090=



000
FTUS46 KPDT 291600 AAB
TAFYKM
TAF AMD
KYKM 291615Z 2916/3012 00000KT 1/2SM FG OVC002
      TEMPO 2916/2917 1/4SM FG VV001
     FM291730 22005KT 3SM BR SCT002 BKN060
     FM291900 16005KT P6SM SCT050 BKN200
     FM300400 28005KT P6SM BKN200
     FM300800 27004KT 5SM -RA BR BKN060 OVC080=



000
FTUS46 KPDT 291500 AAA
TAFDLS
TAF AMD
KDLS 291555Z 2916/3012 19004KT P6SM SCT005 BKN050 OVC080
     FM291700 31005KT P6SM SCT040 BKN050 BKN080
     FM300200 VRB04KT P6SM SCT060 BKN250
     FM300800 33003KT 6SM -RA BR BKN060 OVC070
      TEMPO 3010/3012 3SM -RA BR BKN030 OVC040=



000
FTUS46 KPDT 291300 AAA
TAFYKM
TAF AMD
KYKM 291301Z 2913/3012 29005KT 3SM BR SCT025 BKN070
     FM291600 26005KT 5SM BR SCT040
     FM291800 11005KT P6SM SCT050 BKN200
     FM300400 28005KT P6SM BKN200
     FM300800 27004KT 5SM -RA BR SCT050 OVC080=



000
FTUS46 KPDT 291100
TAFDLS
TAF
KDLS 291120Z 2912/3012 31004KT 2SM BR OVC002
     FM291600 31005KT P6SM SCT040 BKN070
     FM300200 VRB04KT P6SM SCT070 BKN200
     FM300800 33003KT 6SM -RA BR BKN060 OVC070=



000
FTUS46 KPDT 291100
TAFALW
TAF
KALW 291120Z 2912/3012 20006KT P6SM SCT060
     FM291600 23007KT P6SM SCT060
     FM300300 VRB04KT P6SM BKN200
     FM300800 13005KT P6SM BKN100=



000
FTUS46 KPDT 291100
TAFYKM
TAF
KYKM 291120Z 2912/3012 VRB04KT 1/4SM FG VV001
     FM291600 26005KT 5SM BR SCT040
     FM291800 11005KT P6SM SCT050 BKN200
     FM300400 28005KT P6SM BKN200
     FM300800 27004KT 5SM -RA BR SCT050 OVC080=



000
FTUS46 KPDT 291100
TAFPDT
TAF
KPDT 291120Z 2912/3012 21007KT 6SM BR SCT040 BKN060
     FM291600 28007KT P6SM SCT060
     FM300200 16004KT P6SM BKN200
     FM300800 15005KT P6SM BKN100=



000
FTUS46 KPDT 291100
TAFPSC
TAF
KPSC 291120Z 2912/3012 20007KT 6SM BR FEW002
     FM291600 23007KT P6SM SCT080 BKN200
     FM300300 VRB04KT P6SM BKN200
     FM030800 VRB04KT P6SM BKN100=



000
FTUS46 KPDT 291100
TAFRDM
TAF
KRDM 291120Z 2912/3012 16007KT P6SM SKC
     FM291900 20007KT P6SM BKN200
     FM300100 18006KT P6SM OVC100
     FM300700 16004KT P6SM VCSH BKN080 OVC100=



000
FTUS46 KPDT 291100 CCA
TAFPSC
TAF COR
KPSC 291120Z 2912/3012 20007KT 6SM BR FEW002
     FM291600 23007KT P6SM SCT080 BKN200
     FM300300 VRB04KT P6SM BKN200
     FM300800 VRB04KT P6SM BKN100=



000
FTUS46 KPDT 290900 AAC
TAFPSC
TAF AMD
KPSC 290900Z 2909/3006 14007KT 6SM BR FEW002
     FM291000 21004KT 5SM BR SCT010
     FM291600 23007KT P6SM SCT070
     FM300300 VRB04KT P6SM BKN200=



000
FTUS46 KPDT 290800 AAB
TAFPSC
TAF AMD
KPSC 290818Z 2908/3006 23006KT 3SM BR FEW002 SCT010
      TEMPO 2908/2910 3/4SM BR VV002
     FM291000 21004KT 5SM BR SCT010
     FM291600 23007KT P6SM SCT070
     FM300300 VRB04KT P6SM BKN200=



000
FTUS46 KPDT 290800 AAA
TAFPSC
TAF AMD
KPSC 290802Z 2908/3006 23006KT P6SM FEW003 SCT010
      TEMPO 2908/2910 3/4SM BR VV002
     FM291000 21004KT 5SM BR SCT010
     FM291600 23007KT P6SM SCT070
     FM300300 VRB04KT P6SM BKN200=



000
FTUS46 KPDT 290700 AAA
TAFDLS
TAF AMD
KDLS 290731Z 2908/3006 31004KT 3SM BR BKN010
      TEMPO 2908/2911 BKN006
     FM291600 31005KT P6SM SCT040
     FM300200 VRB04KT P6SM BKN200=



000
FTUS46 KPDT 290700 AAA
TAFYKM
TAF AMD
KYKM 290703Z 2907/3006 27006KT 4SM BR BKN025
     FM291600 26005KT P6SM SCT050
     FM300300 28005KT P6SM BKN200
      AMD NOT SKED=



000
FTUS46 KPDT 290500
TAFRDM
TAF
KRDM 290532Z 2906/3006 20007KT P6SM SCT060
      TEMPO 2906/2910 BKN060
     FM291900 20007KT P6SM BKN200
     FM300100 18006KT P6SM OVC100=



000
FTUS46 KPDT 290500
TAFDLS
TAF
KDLS 290532Z 2906/3006 31004KT 3SM BR BKN025
     FM291600 31005KT P6SM SCT040
     FM300200 VRB04KT P6SM BKN200=



000
FTUS46 KPDT 290500
TAFPDT
TAF
KPDT 290532Z 2906/3006 21007KT P6SM BKN060
     FM291600 28007KT P6SM SCT060
     FM300300 VRB04KT P6SM BKN200=



000
FTUS46 KPDT 290500
TAFPSC
TAF
KPSC 290532Z 2906/3006 23006KT P6SM SCT060
      TEMPO 2906/2910 BKN060
     FM291000 21004KT 5SM BR SCT010
     FM291600 23007KT P6SM SCT070
     FM300300 VRB04KT P6SM BKN200=



000
FTUS46 KPDT 290500
TAFALW
TAF
KALW 290532Z 2906/3006 20007KT P6SM BKN060
     FM291600 23007KT P6SM SCT060
     FM300300 VRB04KT P6SM BKN200=



000
FTUS46 KPDT 290500
TAFYKM
TAF
KYKM 290532Z 2906/3006 27006KT 4SM BR BKN025
     FM291600 26005KT P6SM SCT050
     FM300300 28005KT P6SM BKN200=



000
FTUS46 KPDT 282300
TAFRDM
TAF
KRDM 282320Z 2900/2924 18010G20KT P6SM VCSH BKN050 OVC070
     FM290600 19008KT P6SM VCSH SCT030 BKN040
     FM291200 VRB06KT P6SM SCT040 SCT250
     FM292100 34005KT P6SM SCT040 BKN060=



000
FTUS46 KPDT 282300
TAFPDT
TAF
KPDT 282320Z 2900/2924 34008KT 5SM -SHRA SCT040 BKN060 OVC080
     FM290600 19008KT P6SM -RA BKN035 OVC050
     FM291200 20006KT P6SM VCSH SCT040 BKN060 BKN080
     FM291500 19007KT P6SM SCT060
     FM292100 22006KT P6SM FEW060=



000
FTUS46 KPDT 282300
TAFDLS
TAF
KDLS 282320Z 2900/2924 VRB05KT P6SM -SHRA SCT020 BKN070 OVC090
     FM290900 12004KT P6SM VCSH SCT050 BKN080
     FM291200 12002KT P6SM BKN035 BKN060
     FM292100 34002KT P6SM SCT040 BKN080=



000
FTUS46 KPDT 282300
TAFALW
TAF
KALW 282320Z 2900/2924 14008KT P6SM -SHRA SCT040 BKN060 OVC080
     FM290600 19008KT P6SM -RA BKN035 OVC050
     FM291200 20006KT P6SM VCSH SCT040 BKN060 BKN080
     FM291700 19007KT P6SM FEW040 SCT060
     FM292100 21008KT P6SM FEW060=



000
FTUS46 KPDT 282300
TAFPSC
TAF
KPSC 282320Z 2900/2924 VRB03KT P6SM -SHRA SCT050 BKN060 OVC080
     FM290600 20009KT P6SM VCSH SCT050 BKN070 OVC100
     FM290900 22005KT P6SM SCT050 SCT070
     FM291500 20008KT P6SM FEW050 SCT080
     FM292100 22008KT P6SM FEW080=



000
FTUS46 KPDT 282300
TAFYKM
TAF
KYKM 282320Z 2900/2924 VRB03KT P6SM -SHRA BKN060 OVC090
     FM290300 15005KT P6SM VCSH BKN060
     FM290600 29004KT P6SM SCT060
     FM291500 VRB03KT P6SM FEW060
     FM292100 18003KT P6SM FEW040=



000
FTUS46 KPDT 281700
TAFYKM
TAF
KYKM 281732Z 2818/2918 31005KT P6SM -RA BKN060 OVC090
     FM290300 15005KT P6SM VCSH BKN060
     FM290600 29004KT P6SM SCT060
     FM291500 VRB03KT P6SM FEW060=



000
FTUS46 KPDT 281700
TAFPDT
TAF
KPDT 281732Z 2818/2918 33006KT P6SM VCSH BKN080 OVC090
     FM282100 14008KT P6SM -RA SCT040 BKN060 OVC080
     FM290600 19008KT P6SM -RA BKN035 OVC050
     FM291200 20006KT P6SM VCSH SCT040 BKN060 BKN080
     FM291500 19007KT P6SM SCT060=



000
FTUS46 KPDT 281700
TAFDLS
TAF
KDLS 281732Z 2818/2918 VRB04KT P6SM -RA FEW020 BKN060 OVC080
     FM282000 VRB05KT P6SM -RA SCT020 BKN035 OVC050
     FM290900 12004KT P6SM VCSH SCT050 BKN080
     FM291200 12002KT P6SM BKN035 BKN060=



000
FTUS46 KPDT 281700
TAFPSC
TAF
KPSC 281732Z 2818/2918 28005KT P6SM -RA BKN080 OVC100
     FM290000 VRB03KT P6SM -RA SCT050 BKN060 OVC080
     FM290600 20009KT P6SM VCSH SCT050 BKN070 OVC100
     FM290900 22005KT P6SM SCT050 SCT070
     FM291500 20008KT P6SM FEW050 SCT080=



000
FTUS46 KPDT 281700
TAFRDM
TAF
KRDM 281732Z 2818/2918 18008KT P6SM VCSH SCT060 BKN080 OVC120
     FM282300 18009KT P6SM -RA SCT020 BKN050 OVC070
     FM290600 19008KT P6SM VCSH SCT030 BKN040
     FM291200 VRB06KT P6SM SCT040 SCT250=



000
FTUS46 KPDT 281700
TAFALW
TAF
KALW 281732Z 2818/2918 17008KT P6SM -RA SCT050 BKN070 OVC090
     FM282100 14008KT P6SM -RA SCT040 BKN060 OVC080
     FM290600 19008KT P6SM -RA BKN035 OVC050
     FM291200 20006KT P6SM VCSH SCT040 BKN060 BKN080
     FM291700 19007KT P6SM FEW040 SCT060=



000
FTUS46 KPDT 281100
TAFDLS
TAF
KDLS 281120Z 2812/2912 VRB04KT P6SM OVC080
     FM282000 31005KT P6SM -RA BKN035 OVC050
     FM290600 VRB04KT P6SM VCSH BKN050 OVC060=



000
FTUS46 KPDT 281100
TAFPDT
TAF
KPDT 281120Z 2812/2912 11008KT P6SM BKN080 OVC090
     FM281900 16008KT P6SM BKN070
     FM290100 18007KT P6SM -SHRA OVC070
     FM290600 19008KT P6SM -RA BKN035 OVC050=



000
FTUS46 KPDT 281100
TAFALW
TAF
KALW 281120Z 2812/2912 09007KT P6SM OVC080
     FM281900 16008KT P6SM BKN070
     FM290100 17010KT P6SM -SHRA OVC070
     FM290600 18009KT P6SM -RA BKN035 OVC050=



000
FTUS46 KPDT 281100
TAFRDM
TAF
KRDM 281120Z 2812/2912 16008KT P6SM BKN080 OVC120
     FM281900 20011KT P6SM BKN090
     FM290100 18009KT P6SM -SHRA OVC070
     FM290600 19008KT P6SM VCSH SCT030 BKN040=



000
FTUS46 KPDT 281100
TAFPSC
TAF
KPSC 281120Z 2812/2912 33005KT P6SM OVC080
     FM281900 16006KT P6SM BKN070
     FM282300 17006KT P6SM -SHRA OVC070
     FM290600 20009KT P6SM VCSH BKN070 OVC100=



000
FTUS46 KPDT 281100
TAFYKM
TAF
KYKM 281120Z 2812/2912 27005KT P6SM BKN060 OVC080
     FM281800 31005KT P6SM -SHRA OVC060
     FM290000 15005KT P6SM BKN060
     FM290600 29004KT P6SM SCT060=



000
FTUS46 KPDT 280500
TAFPDT
TAF
KPDT 280521Z 2806/2906 11008KT P6SM BKN100
     FM281900 16008KT P6SM BKN090
     FM290100 34007KT P6SM -SHRA OVC070=



000
FTUS46 KPDT 280500
TAFALW
TAF
KALW 280521Z 2806/2906 11007KT P6SM BKN100
     FM281900 16008KT P6SM BKN090
     FM290100 33007KT P6SM -SHRA OVC070=



000
FTUS46 KPDT 280500
TAFDLS
TAF
KDLS 280521Z 2806/2906 VRB04KT P6SM BKN080
     FM282000 31005KT P6SM -SHRA OVC050=



000
FTUS46 KPDT 280500
TAFPSC
TAF
KPSC 280521Z 2806/2906 VRB05KT P6SM BKN100
     FM281900 16006KT P6SM BKN090
     FM282300 32006KT P6SM -SHRA OVC070=



000
FTUS46 KPDT 280500
TAFRDM
TAF
KRDM 280521Z 2806/2906 VRB05KT P6SM BKN100
     FM281900 17008KT P6SM BKN090
     FM290100 20009KT P6SM -SHRA OVC070=



000
FTUS46 KPDT 280500
TAFYKM
TAF
KYKM 280521Z 2806/2906 26006KT P6SM BKN080
     FM282000 31005KT P6SM -SHRA OVC060=



    US Dept of Commerce
    National Oceanic and Atmospheric Administration
    National Weather Service
    1325 East West Highway
    Silver Spring, MD 20910
    Page Author: NWS Internet Services Team
Disclaimer
Information Quality
Credits
Glossary
Privacy Policy
Freedom of Information Act (FOIA)
About Us
Career Opportunities